Time;durP1;ratioP1;P1;durP2;ratioP2;P2;SDS_P1;SDS_P2;PMS_P1;PMS_P2;Temp;Humidity;BMP_temperature;BMP_pressure;BME280_temperature;BME280_humidity;BME280_pressure;Samples;Min_cycle;Max_cycle;Signal;HPM_P1;HPM_P2
2023/05/16 00:00:42;;;;;;;9.87;6.83;;;11.10;42.50;;;;;;5040318;28;20463;-64
2023/05/16 00:03:10;;;;;;;10.10;6.97;;;11.10;42.80;;;;;;5044776;28;20814;-64
2023/05/16 00:05:37;;;;;;;11.00;7.80;;;11.10;42.60;;;;;;5044271;28;20479;-65
2023/05/16 00:08:06;;;;;;;11.60;8.30;;;11.10;42.70;;;;;;5048128;28;20461;-65
2023/05/16 00:10:32;;;;;;;10.80;8.00;;;11.10;42.70;;;;;;5047596;28;20473;-64
2023/05/16 00:13:00;;;;;;;25.77;19.17;;;11.10;42.60;;;;;;5044179;28;20483;-64
2023/05/16 00:15:28;;;;;;;16.73;9.10;;;11.10;42.70;;;;;;5047485;28;20481;-64
2023/05/16 00:17:57;;;;;;;13.97;9.60;;;11.10;42.90;;;;;;5050261;28;20462;-64
2023/05/16 00:20:24;;;;;;;12.47;8.57;;;11.10;43.10;;;;;;5049554;28;20454;-65
2023/05/16 00:22:50;;;;;;;11.00;8.33;;;11.10;43.00;;;;;;5048044;28;20463;-64
2023/05/16 00:25:18;;;;;;;11.50;7.83;;;11.10;43.10;;;;;;5041270;28;20515;-66
2023/05/16 00:27:46;;;;;;;10.93;7.57;;;11.00;43.70;;;;;;5049062;28;20458;-64
2023/05/16 00:30:13;;;;;;;10.90;8.20;;;11.00;43.60;;;;;;5047673;28;20917;-65
2023/05/16 00:32:40;;;;;;;12.60;8.53;;;11.00;43.60;;;;;;5047759;28;20488;-64
2023/05/16 00:35:09;;;;;;;10.90;7.70;;;11.00;43.70;;;;;;5046582;28;20459;-65
2023/05/16 00:37:36;;;;;;;11.23;7.50;;;10.90;43.80;;;;;;5047534;28;21508;-65
2023/05/16 00:40:03;;;;;;;10.57;7.70;;;10.90;43.90;;;;;;5044607;28;20462;-65
2023/05/16 00:42:31;;;;;;;10.13;7.33;;;10.90;44.00;;;;;;5049622;28;21050;-64
2023/05/16 00:44:58;;;;;;;10.53;6.60;;;10.90;43.90;;;;;;5052245;28;20465;-64
2023/05/16 00:47:25;;;;;;;10.03;6.97;;;10.90;44.00;;;;;;5051723;28;20474;-64
2023/05/16 00:49:52;;;;;;;10.47;6.80;;;10.90;44.20;;;;;;5048308;28;20462;-64
2023/05/16 00:52:18;;;;;;;9.83;6.70;;;10.80;44.20;;;;;;5047932;28;20474;-64
2023/05/16 00:54:45;;;;;;;10.37;6.90;;;10.80;44.10;;;;;;5048742;28;20461;-65
2023/05/16 00:57:12;;;;;;;11.50;7.10;;;10.80;44.20;;;;;;5052840;28;20474;-64
2023/05/16 00:59:41;;;;;;;9.90;7.50;;;10.80;44.30;;;;;;5047342;28;20450;-64
2023/05/16 01:02:08;;;;;;;10.40;7.63;;;10.70;44.40;;;;;;5048030;28;20852;-64
2023/05/16 01:04:35;;;;;;;12.20;7.20;;;10.70;44.50;;;;;;5048588;28;21100;-64
2023/05/16 01:07:02;;;;;;;10.60;6.90;;;10.70;44.30;;;;;;5045959;28;20982;-64
2023/05/16 01:09:29;;;;;;;12.20;7.43;;;10.70;44.30;;;;;;5044184;28;20455;-64
2023/05/16 01:12:05;;;;;;;9.67;6.70;;;10.70;44.30;;;;;;5048131;28;20470;-64
2023/05/16 01:14:46;;;;;;;9.83;6.43;;;10.60;44.10;;;;;;5045252;28;20454;-64
2023/05/16 01:17:21;;;;;;;10.17;6.57;;;10.60;44.00;;;;;;5046998;28;20885;-64
2023/05/16 01:20:00;;;;;;;9.37;7.40;;;10.50;44.00;;;;;;5052151;28;20894;-64
2023/05/16 01:22:46;;;;;;;10.23;6.50;;;10.50;44.20;;;;;;5053450;28;20461;-64
2023/05/16 01:25:26;;;;;;;8.90;6.00;;;10.50;43.80;;;;;;5046193;28;20584;-64
2023/05/16 01:27:57;;;;;;;10.47;6.80;;;10.40;43.50;;;;;;5047016;28;20469;-65
2023/05/16 01:30:24;;;;;;;9.47;6.80;;;10.40;43.40;;;;;;5048797;28;20738;-64
2023/05/16 01:32:51;;;;;;;11.40;6.90;;;10.30;43.50;;;;;;5054308;28;20540;-64
2023/05/16 01:35:18;;;;;;;10.47;7.03;;;10.30;43.60;;;;;;5052799;28;20454;-64
2023/05/16 01:37:51;;;;;;;11.33;8.60;;;10.30;43.60;;;;;;5050107;28;20450;-65
2023/05/16 01:40:26;;;;;;;13.13;8.33;;;10.20;43.70;;;;;;5052948;28;20659;-64
2023/05/16 01:42:56;;;;;;;12.33;6.90;;;10.20;43.80;;;;;;5048055;28;20449;-65
2023/05/16 01:45:26;;;;;;;10.80;6.70;;;10.20;43.80;;;;;;5048193;28;20484;-64
2023/05/16 01:48:05;;;;;;;10.77;7.57;;;10.20;43.80;;;;;;5050626;28;20454;-64
2023/05/16 01:50:35;;;;;;;13.13;7.70;;;10.20;44.00;;;;;;5049480;28;20462;-64
2023/05/16 01:53:10;;;;;;;10.93;6.80;;;10.10;43.80;;;;;;5053139;28;20478;-65
2023/05/16 01:55:43;;;;;;;10.30;7.13;;;10.10;43.70;;;;;;5048712;28;20597;-64
2023/05/16 01:58:12;;;;;;;8.80;6.30;;;10.00;43.70;;;;;;5051897;28;20577;-64
2023/05/16 02:00:40;;;;;;;12.23;6.97;;;9.90;43.90;;;;;;5051134;28;20809;-64
2023/05/16 02:03:06;;;;;;;10.73;7.57;;;9.90;43.90;;;;;;5054149;28;20446;-64
2023/05/16 02:05:33;;;;;;;9.27;6.97;;;9.90;44.00;;;;;;5050323;28;20485;-64
2023/05/16 02:08:00;;;;;;;10.40;6.83;;;9.90;44.10;;;;;;5049685;28;20453;-64
2023/05/16 02:10:28;;;;;;;10.60;7.00;;;9.80;43.80;;;;;;5048248;28;20461;-64
2023/05/16 02:12:54;;;;;;;10.33;6.73;;;9.80;43.90;;;;;;5050432;28;20474;-64
2023/05/16 02:15:23;;;;;;;12.20;7.93;;;9.80;44.00;;;;;;5049629;28;20835;-64
2023/05/16 02:17:49;;;;;;;10.10;6.70;;;9.80;44.20;;;;;;5048812;28;20466;-64
2023/05/16 02:20:16;;;;;;;9.40;6.50;;;9.70;44.00;;;;;;5048656;28;20454;-64
2023/05/16 02:22:46;;;;;;;11.13;7.97;;;9.70;44.20;;;;;;5049032;28;21193;-64
2023/05/16 02:25:14;;;;;;;12.47;8.53;;;9.70;44.40;;;;;;5048771;28;20461;-65
2023/05/16 02:27:41;;;;;;;10.53;7.10;;;9.70;44.40;;;;;;5050734;28;20465;-64
2023/05/16 02:30:09;;;;;;;9.80;6.50;;;9.70;44.70;;;;;;5048088;28;20542;-64
2023/05/16 02:32:38;;;;;;;8.57;6.03;;;9.80;44.60;;;;;;5048435;28;21309;-64
2023/05/16 02:35:05;;;;;;;10.63;7.60;;;9.70;44.20;;;;;;5050680;28;20454;-64
2023/05/16 02:37:32;;;;;;;9.40;6.57;;;9.70;44.20;;;;;;5046541;28;20470;-64
2023/05/16 02:39:59;;;;;;;10.10;6.47;;;9.70;44.20;;;;;;5046113;28;20533;-64
2023/05/16 02:42:27;;;;;;;9.40;6.87;;;9.70;44.00;;;;;;5051464;28;20466;-64
2023/05/16 02:44:53;;;;;;;9.60;7.03;;;9.70;43.90;;;;;;5040429;28;20486;-64
2023/05/16 02:47:20;;;;;;;9.63;7.30;;;9.70;44.00;;;;;;5051240;28;20991;-64
2023/05/16 02:49:48;;;;;;;10.87;7.33;;;9.70;43.70;;;;;;5048723;28;20488;-64
2023/05/16 02:52:15;;;;;;;9.70;6.97;;;9.70;43.80;;;;;;5046697;28;20474;-64
2023/05/16 02:54:41;;;;;;;10.90;7.30;;;9.70;43.50;;;;;;5040851;28;20497;-64
2023/05/16 02:57:08;;;;;;;11.07;7.93;;;9.70;43.80;;;;;;5049619;28;20481;-64
2023/05/16 02:59:35;;;;;;;12.43;8.20;;;9.70;43.60;;;;;;5041474;28;20959;-64
2023/05/16 03:02:02;;;;;;;10.90;7.97;;;9.70;43.50;;;;;;5047493;28;20535;-64
2023/05/16 03:04:29;;;;;;;12.37;8.70;;;9.70;43.50;;;;;;5043851;28;20482;-64
2023/05/16 03:06:57;;;;;;;12.20;9.27;;;9.70;43.40;;;;;;5047578;28;21054;-64
2023/05/16 03:09:24;;;;;;;13.33;10.43;;;9.70;43.80;;;;;;5050117;28;20465;-64
2023/05/16 03:11:50;;;;;;;12.10;9.20;;;9.80;43.90;;;;;;5045622;28;20520;-64
2023/05/16 03:14:17;;;;;;;12.93;9.67;;;9.80;44.40;;;;;;5048327;28;20485;-64
2023/05/16 03:16:44;;;;;;;28.07;9.70;;;9.80;44.60;;;;;;5046250;28;20486;-64
2023/05/16 03:19:12;;;;;;;10.70;8.90;;;9.80;44.70;;;;;;5041621;28;20480;-64
2023/05/16 03:21:39;;;;;;;11.10;8.27;;;9.80;45.00;;;;;;5043196;28;20458;-64
2023/05/16 03:24:08;;;;;;;13.43;8.97;;;9.80;45.20;;;;;;5048197;28;20855;-64
2023/05/16 03:26:34;;;;;;;11.60;8.87;;;9.80;44.90;;;;;;5040131;28;20474;-65
2023/05/16 03:29:01;;;;;;;13.87;10.10;;;9.80;44.70;;;;;;5044643;28;20512;-64
2023/05/16 03:31:28;;;;;;;13.63;10.10;;;9.80;44.70;;;;;;5041162;28;20967;-64
2023/05/16 03:33:55;;;;;;;16.90;10.60;;;9.80;44.80;;;;;;5042188;28;20851;-64
2023/05/16 03:36:23;;;;;;;13.87;10.63;;;9.80;44.70;;;;;;5042194;28;20477;-65
2023/05/16 03:38:49;;;;;;;14.07;10.40;;;9.90;44.80;;;;;;5044134;28;20458;-65
2023/05/16 03:41:17;;;;;;;11.80;9.00;;;9.80;44.70;;;;;;5044211;28;20454;-64
2023/05/16 03:43:44;;;;;;;12.97;9.40;;;9.90;44.90;;;;;;5046161;28;20453;-65
2023/05/16 03:46:11;;;;;;;14.50;10.20;;;9.90;44.80;;;;;;5049443;28;20557;-64
2023/05/16 03:48:38;;;;;;;14.50;11.13;;;10.00;44.70;;;;;;5050516;28;21122;-64
2023/05/16 03:51:05;;;;;;;13.90;10.50;;;10.00;44.80;;;;;;5051394;28;20454;-64
2023/05/16 03:53:32;;;;;;;13.93;9.20;;;10.10;44.80;;;;;;5042197;28;20496;-64
2023/05/16 03:55:59;;;;;;;12.90;9.67;;;10.10;44.70;;;;;;5042138;28;20483;-65
2023/05/16 03:58:27;;;;;;;12.90;9.23;;;10.10;44.70;;;;;;5045270;28;20475;-65
2023/05/16 04:00:53;;;;;;;14.10;10.97;;;10.20;44.70;;;;;;5044178;28;20477;-65
2023/05/16 04:03:26;;;;;;;16.93;10.63;;;10.20;44.70;;;;;;5042236;28;20865;-65
2023/05/16 04:05:53;;;;;;;15.90;10.27;;;10.10;44.90;;;;;;5045188;28;21017;-65
2023/05/16 04:08:20;;;;;;;13.80;9.87;;;10.20;44.70;;;;;;5044198;28;20466;-65
2023/05/16 04:10:47;;;;;;;15.83;10.77;;;10.20;45.00;;;;;;5044674;28;22608;-65
2023/05/16 04:13:15;;;;;;;13.20;10.10;;;10.20;44.90;;;;;;5042186;28;20477;-66
2023/05/16 04:15:43;;;;;;;15.50;11.10;;;10.10;44.90;;;;;;5042350;28;20489;-65
2023/05/16 04:18:10;;;;;;;16.87;10.90;;;10.10;45.00;;;;;;5043594;28;21008;-65
2023/05/16 04:20:36;;;;;;;15.33;11.33;;;10.10;45.20;;;;;;5043646;28;20829;-65
2023/05/16 04:23:03;;;;;;;15.07;11.00;;;10.10;45.20;;;;;;5043181;28;20458;-64
2023/05/16 04:25:30;;;;;;;16.70;11.73;;;10.10;45.20;;;;;;5046351;28;20497;-64
2023/05/16 04:27:57;;;;;;;15.47;11.33;;;10.10;45.30;;;;;;5049274;28;21039;-64
2023/05/16 04:30:23;;;;;;;14.83;10.13;;;10.10;45.20;;;;;;5048822;28;20976;-64
2023/05/16 04:32:51;;;;;;;17.67;11.60;;;10.10;45.20;;;;;;5045201;28;20891;-64
2023/05/16 04:35:18;;;;;;;15.70;10.20;;;10.10;45.10;;;;;;5050038;28;20465;-64
2023/05/16 04:37:45;;;;;;;14.70;10.10;;;10.10;45.10;;;;;;5050692;28;20876;-64
2023/05/16 04:40:13;;;;;;;14.13;10.20;;;10.10;45.00;;;;;;5047623;28;20450;-64
2023/05/16 04:42:40;;;;;;;15.40;10.23;;;10.10;45.00;;;;;;5042130;28;20454;-64
2023/05/16 04:45:09;;;;;;;14.13;10.60;;;10.10;44.90;;;;;;5045277;28;20515;-64
2023/05/16 04:47:36;;;;;;;15.47;10.40;;;10.20;45.00;;;;;;5046613;28;20462;-64
2023/05/16 04:50:05;;;;;;;15.10;10.67;;;10.20;44.90;;;;;;5047259;28;20508;-64
2023/05/16 04:52:32;;;;;;;14.33;10.63;;;10.30;44.90;;;;;;5046016;28;20533;-65
2023/05/16 04:54:59;;;;;;;14.10;10.70;;;10.40;44.80;;;;;;5050527;28;20461;-64
2023/05/16 04:57:27;;;;;;;15.07;11.00;;;10.50;44.40;;;;;;5043037;28;20459;-64
2023/05/16 04:59:53;;;;;;;17.03;9.90;;;10.60;44.60;;;;;;5040935;28;20487;-64
2023/05/16 05:02:20;;;;;;;14.60;10.80;;;10.60;44.60;;;;;;5049637;28;20478;-64
2023/05/16 05:04:47;;;;;;;18.40;10.30;;;10.80;44.30;;;;;;5049310;28;20579;-64
2023/05/16 05:07:15;;;;;;;15.30;11.33;;;10.90;44.00;;;;;;5047203;28;20481;-64
2023/05/16 05:09:42;;;;;;;13.90;11.47;;;11.00;44.00;;;;;;5052719;28;20469;-64
2023/05/16 05:12:10;;;;;;;14.87;11.03;;;11.10;44.10;;;;;;5052375;28;20462;-64
2023/05/16 05:14:36;;;;;;;15.23;10.03;;;11.20;44.10;;;;;;5045634;28;20456;-64
2023/05/16 05:17:03;;;;;;;15.30;11.10;;;11.30;44.00;;;;;;5053787;28;20470;-64
2023/05/16 05:19:30;;;;;;;17.50;11.40;;;11.50;43.80;;;;;;5048319;28;20457;-64
2023/05/16 05:21:57;;;;;;;15.57;11.80;;;11.60;43.50;;;;;;5064174;22;20992;-70
2023/05/16 05:24:25;;;;;;;17.40;11.83;;;11.70;43.40;;;;;;5070332;28;20457;-70
2023/05/16 05:26:52;;;;;;;16.07;11.83;;;11.90;43.00;;;;;;5067875;28;20480;-70
2023/05/16 05:29:18;;;;;;;16.77;12.77;;;12.00;43.30;;;;;;5072746;28;20461;-71
2023/05/16 05:31:45;;;;;;;14.60;10.53;;;12.20;42.30;;;;;;5069604;28;20481;-71
2023/05/16 05:34:12;;;;;;;17.30;13.17;;;12.40;41.80;;;;;;5071467;28;20484;-71
2023/05/16 05:36:38;;;;;;;16.13;13.13;;;12.50;41.60;;;;;;5071442;28;20839;-70
2023/05/16 05:39:05;;;;;;;20.50;14.53;;;12.80;41.30;;;;;;5072894;28;20457;-70
2023/05/16 05:41:33;;;;;;;19.03;14.33;;;13.10;40.90;;;;;;5073354;28;20489;-70
2023/05/16 05:44:00;;;;;;;19.80;14.27;;;13.50;40.10;;;;;;5072180;28;20480;-70
2023/05/16 05:46:27;;;;;;;19.20;14.80;;;13.80;39.10;;;;;;5072246;28;20492;-70
2023/05/16 05:48:54;;;;;;;20.27;15.70;;;14.20;38.00;;;;;;5069756;28;20464;-70
2023/05/16 05:51:21;;;;;;;19.63;15.83;;;14.50;37.30;;;;;;5072679;28;20569;-70
2023/05/16 05:53:48;;;;;;;21.37;15.50;;;14.70;36.20;;;;;;5070225;28;20481;-70
2023/05/16 05:56:14;;;;;;;19.63;15.33;;;14.90;35.90;;;;;;5068841;28;20485;-70
2023/05/16 05:58:42;;;;;;;19.30;15.50;;;15.00;35.20;;;;;;5070922;28;20467;-70
2023/05/16 06:01:10;;;;;;;19.60;14.40;;;15.20;34.70;;;;;;5067062;28;20852;-70
2023/05/16 06:03:37;;;;;;;21.53;16.77;;;15.20;34.20;;;;;;5072159;28;20824;-70
2023/05/16 06:06:04;;;;;;;18.77;14.67;;;15.30;33.80;;;;;;5071934;28;20481;-70
2023/05/16 06:08:31;;;;;;;19.93;16.47;;;15.20;33.60;;;;;;5071217;28;20461;-70
2023/05/16 06:10:58;;;;;;;20.70;15.47;;;15.30;33.60;;;;;;5070754;28;20461;-69
2023/05/16 06:13:24;;;;;;;18.50;14.90;;;15.20;33.50;;;;;;5070392;28;20477;-71
2023/05/16 06:15:53;;;;;;;20.03;16.00;;;15.20;33.70;;;;;;5065829;28;20576;-70
2023/05/16 06:18:20;;;;;;;17.90;15.17;;;15.10;33.50;;;;;;5050740;28;20466;-70
2023/05/16 06:20:47;;;;;;;19.10;16.17;;;15.10;33.40;;;;;;5069800;28;20465;-70
2023/05/16 06:23:14;;;;;;;19.90;17.30;;;15.10;33.70;;;;;;5072436;28;20468;-70
2023/05/16 06:25:40;;;;;;;28.20;18.67;;;15.00;33.20;;;;;;5071506;28;20484;-71
2023/05/16 06:28:07;;;;;;;20.20;16.00;;;15.10;33.90;;;;;;5068814;28;20511;-70
2023/05/16 06:30:34;;;;;;;21.57;16.90;;;15.00;33.40;;;;;;5071815;28;20461;-71
2023/05/16 06:33:02;;;;;;;18.73;16.23;;;15.00;33.60;;;;;;5071884;28;21479;-71
2023/05/16 06:35:29;;;;;;;22.10;16.43;;;15.00;33.40;;;;;;5071820;28;20489;-72
2023/05/16 06:37:56;;;;;;;19.87;16.17;;;15.00;33.20;;;;;;5071788;28;20454;-71
2023/05/16 06:40:23;;;;;;;20.70;16.10;;;15.10;33.30;;;;;;5071108;28;20461;-71
2023/05/16 06:42:50;;;;;;;18.67;15.40;;;15.10;33.40;;;;;;5071508;28;20465;-71
2023/05/16 06:45:17;;;;;;;24.03;16.77;;;15.10;33.30;;;;;;5070510;28;20812;-70
2023/05/16 06:47:43;;;;;;;21.50;17.00;;;15.10;33.40;;;;;;5077981;28;20461;-69
2023/05/16 06:50:12;;;;;;;18.73;16.50;;;15.10;32.80;;;;;;5082367;28;20468;-71
2023/05/16 06:52:39;;;;;;;20.83;18.50;;;15.20;32.80;;;;;;5072770;28;20568;-71
2023/05/16 06:55:06;;;;;;;22.13;17.40;;;15.20;32.50;;;;;;5068403;28;20481;-70
2023/05/16 06:57:33;;;;;;;19.57;14.90;;;15.20;32.70;;;;;;5066222;28;20464;-71
2023/05/16 06:59:59;;;;;;;18.93;15.43;;;15.20;33.00;;;;;;5068053;28;20461;-70
2023/05/16 07:02:26;;;;;;;17.90;15.03;;;15.20;32.80;;;;;;5070103;28;20477;-70
2023/05/16 07:04:54;;;;;;;20.00;16.50;;;15.20;32.90;;;;;;5070643;28;20504;-70
2023/05/16 07:07:22;;;;;;;20.30;17.07;;;15.30;32.90;;;;;;5067244;28;20488;-70
2023/05/16 07:09:49;;;;;;;21.00;17.73;;;15.40;32.60;;;;;;5067594;28;20472;-69
2023/05/16 07:12:16;;;;;;;21.30;18.30;;;15.40;32.60;;;;;;5069781;28;20460;-68
2023/05/16 07:14:43;;;;;;;20.03;15.87;;;15.40;32.60;;;;;;5069543;28;20527;-69
2023/05/16 07:17:10;;;;;;;21.13;16.80;;;15.40;32.90;;;;;;5066527;28;20484;-70
2023/05/16 07:19:37;;;;;;;20.10;17.70;;;15.40;32.40;;;;;;5069899;28;20468;-69
2023/05/16 07:22:03;;;;;;;18.87;16.83;;;15.50;32.60;;;;;;5066076;28;20486;-69
2023/05/16 07:24:32;;;;;;;19.40;16.10;;;15.60;32.50;;;;;;5069876;28;20454;-70
2023/05/16 07:26:58;;;;;;;20.50;17.70;;;15.50;32.50;;;;;;5067514;28;20485;-70
2023/05/16 07:29:25;;;;;;;21.30;16.07;;;15.60;32.40;;;;;;5065321;28;21020;-69
2023/05/16 07:31:52;;;;;;;20.70;17.57;;;15.70;32.40;;;;;;5068929;28;20477;-69
2023/05/16 07:34:18;;;;;;;19.67;16.07;;;15.80;32.20;;;;;;5069023;28;20473;-69
2023/05/16 07:36:45;;;;;;;17.17;14.80;;;15.90;32.10;;;;;;5065475;28;20484;-67
2023/05/16 07:39:13;;;;;;;16.50;14.63;;;16.10;32.50;;;;;;5066143;28;20464;-68
2023/05/16 07:41:41;;;;;;;17.07;14.30;;;16.30;31.60;;;;;;5069745;28;20457;-67
2023/05/16 07:44:08;;;;;;;17.93;15.17;;;16.60;31.20;;;;;;5069029;28;20449;-68
2023/05/16 07:46:34;;;;;;;20.47;16.33;;;16.80;30.90;;;;;;5068384;28;20972;-66
2023/05/16 07:49:01;;;;;;;17.30;15.23;;;17.10;30.40;;;;;;5066730;28;20461;-68
2023/05/16 07:51:28;;;;;;;19.50;16.97;;;17.70;29.70;;;;;;5068269;28;20461;-67
2023/05/16 07:53:55;;;;;;;18.23;14.90;;;18.90;27.30;;;;;;5066428;28;20531;-67
2023/05/16 07:56:22;;;;;;;16.27;14.47;;;20.50;24.10;;;;;;5063161;28;20852;-67
2023/05/16 07:58:50;;;;;;;16.20;13.10;;;22.20;19.20;;;;;;5075012;22;20607;-68
2023/05/16 08:01:17;;;;;;;15.80;14.20;;;23.40;14.50;;;;;;5078382;28;20830;-67
2023/05/16 08:03:44;;;;;;;17.47;13.00;;;24.60;11.00;;;;;;5083641;28;20456;-68
2023/05/16 08:06:11;;;;;;;14.93;12.30;;;25.10;8.40;;;;;;5089021;28;20460;-68
2023/05/16 08:08:38;;;;;;;14.63;12.87;;;24.90;8.00;;;;;;5091005;28;20541;-68
2023/05/16 08:11:05;;;;;;;15.00;13.10;;;24.60;8.10;;;;;;5082357;28;20617;-67
2023/05/16 08:13:32;;;;;;;15.27;13.27;;;23.80;8.10;;;;;;5079177;28;20515;-68
2023/05/16 08:16:00;;;;;;;16.73;14.33;;;23.10;8.60;;;;;;5085968;28;20463;-67
2023/05/16 08:18:27;;;;;;;15.90;14.40;;;22.50;10.20;;;;;;5087106;28;20473;-68
2023/05/16 08:20:53;;;;;;;17.07;13.80;;;22.20;11.10;;;;;;5088947;28;20480;-69
2023/05/16 08:23:20;;;;;;;16.83;14.43;;;21.90;11.50;;;;;;5092816;28;20464;-68
2023/05/16 08:25:47;;;;;;;17.70;13.87;;;21.80;12.30;;;;;;5090586;28;20512;-68
2023/05/16 08:28:14;;;;;;;14.97;13.47;;;21.70;12.50;;;;;;5090680;28;20957;-69
2023/05/16 08:30:40;;;;;;;14.13;12.63;;;21.30;12.30;;;;;;5091359;28;20479;-69
2023/05/16 08:33:09;;;;;;;15.43;12.73;;;20.90;11.60;;;;;;5092087;28;20468;-68
2023/05/16 08:35:35;;;;;;;15.37;12.50;;;20.60;12.10;;;;;;5086632;28;20487;-68
2023/05/16 08:38:02;;;;;;;15.10;12.53;;;20.20;12.70;;;;;;5089627;28;20844;-68
2023/05/16 08:40:30;;;;;;;14.40;12.80;;;19.90;13.20;;;;;;5085087;28;20488;-70
2023/05/16 08:42:57;;;;;;;14.63;13.13;;;19.50;13.90;;;;;;5080457;28;20492;-69
2023/05/16 08:45:23;;;;;;;16.30;13.60;;;19.10;14.50;;;;;;5090352;28;20460;-69
2023/05/16 08:47:54;;;;;;;18.77;13.53;;;18.80;14.90;;;;;;5090416;28;20464;-67
2023/05/16 08:50:22;;;;;;;15.73;14.00;;;18.60;15.50;;;;;;5089287;28;20519;-69
2023/05/16 08:52:52;;;;;;;16.90;13.40;;;18.40;16.30;;;;;;5090595;28;20464;-70
2023/05/16 08:55:20;;;;;;;16.07;13.27;;;18.10;16.70;;;;;;5090383;28;20805;-68
2023/05/16 08:57:50;;;;;;;16.37;13.77;;;17.90;16.90;;;;;;5090777;28;20480;-69
2023/05/16 09:00:18;;;;;;;16.13;14.27;;;17.60;18.00;;;;;;5085071;28;20850;-69
2023/05/16 09:02:46;;;;;;;19.60;15.70;;;17.30;18.50;;;;;;5090606;28;20467;-69
2023/05/16 09:05:14;;;;;;;26.33;17.13;;;17.10;19.80;;;;;;5091201;28;20452;-68
2023/05/16 09:07:43;;;;;;;21.07;16.60;;;16.80;21.30;;;;;;5091602;28;20459;-68
2023/05/16 09:10:11;;;;;;;21.87;17.20;;;16.70;22.60;;;;;;5088634;28;20475;-69
2023/05/16 09:12:38;;;;;;;20.70;17.60;;;16.50;23.30;;;;;;5089478;28;20474;-68
2023/05/16 09:15:08;;;;;;;19.40;17.33;;;16.30;24.00;;;;;;5087996;28;20483;-69
2023/05/16 09:17:37;;;;;;;20.83;18.63;;;16.20;24.30;;;;;;5088184;28;20839;-69
2023/05/16 09:20:10;;;;;;;20.60;17.20;;;16.20;24.70;;;;;;5090756;28;20512;-69
2023/05/16 09:22:37;;;;;;;22.50;18.67;;;16.10;25.40;;;;;;5086623;28;20468;-69
2023/05/16 09:25:06;;;;;;;22.27;18.67;;;16.10;25.80;;;;;;5086520;28;20463;-69
2023/05/16 09:27:33;;;;;;;20.03;17.93;;;16.10;26.10;;;;;;5083074;28;20452;-69
2023/05/16 09:30:00;;;;;;;21.43;19.23;;;16.10;26.00;;;;;;5083611;28;20472;-69
2023/05/16 09:32:27;;;;;;;18.70;16.70;;;16.10;26.30;;;;;;5088543;28;20914;-69
2023/05/16 09:34:57;;;;;;;19.63;17.53;;;16.00;27.10;;;;;;5087474;28;20487;-69
2023/05/16 09:37:24;;;;;;;21.37;19.17;;;16.00;26.90;;;;;;5091351;28;20492;-69
2023/05/16 09:39:53;;;;;;;20.97;17.47;;;16.00;27.20;;;;;;5091535;28;20487;-70
2023/05/16 09:42:22;;;;;;;19.60;16.60;;;16.00;27.20;;;;;;5090108;28;20456;-68
2023/05/16 09:44:50;;;;;;;21.07;18.73;;;16.00;26.70;;;;;;5099912;28;20525;-69
2023/05/16 09:47:17;;;;;;;19.77;17.63;;;16.00;26.70;;;;;;5098259;28;20464;-68
2023/05/16 09:49:45;;;;;;;21.10;18.90;;;16.00;27.00;;;;;;5087249;28;20838;-70
2023/05/16 09:52:13;;;;;;;19.60;17.50;;;15.90;27.10;;;;;;5090407;28;20463;-70
2023/05/16 09:54:40;;;;;;;22.60;18.20;;;15.90;27.50;;;;;;5086860;28;20468;-68
2023/05/16 09:57:07;;;;;;;21.27;17.10;;;15.80;27.50;;;;;;5087251;28;20453;-70
2023/05/16 09:59:37;;;;;;;21.40;17.80;;;15.80;27.30;;;;;;5090664;28;21027;-70
2023/05/16 10:02:05;;;;;;;20.03;17.40;;;15.80;27.30;;;;;;5088392;28;20476;-68
2023/05/16 10:04:34;;;;;;;19.30;17.30;;;15.80;27.50;;;;;;5081717;22;20552;-66
2023/05/16 10:07:03;;;;;;;19.90;16.83;;;15.80;26.70;;;;;;5046639;28;20487;-66
2023/05/16 10:09:32;;;;;;;19.20;17.10;;;15.80;26.90;;;;;;5050130;28;20514;-67
2023/05/16 10:12:03;;;;;;;20.10;16.77;;;15.90;27.20;;;;;;5042952;28;20470;-66
2023/05/16 10:14:33;;;;;;;21.20;17.07;;;16.00;26.80;;;;;;5046785;28;20481;-67
2023/05/16 10:17:03;;;;;;;21.30;18.13;;;16.00;26.80;;;;;;5038331;28;20482;-66
2023/05/16 10:19:32;;;;;;;20.53;17.33;;;16.10;27.20;;;;;;5044832;28;20478;-67
2023/05/16 10:22:04;;;;;;;21.77;18.73;;;16.10;27.40;;;;;;5051051;28;20454;-67
2023/05/16 10:24:37;;;;;;;19.53;17.43;;;16.20;27.20;;;;;;5038714;28;20971;-67
2023/05/16 10:27:04;;;;;;;19.50;15.70;;;16.30;27.80;;;;;;5039964;28;20455;-67
2023/05/16 10:29:32;;;;;;;17.93;16.03;;;16.40;27.60;;;;;;5043157;28;21057;-67
2023/05/16 10:32:01;;;;;;;20.77;18.30;;;16.50;27.60;;;;;;5041799;28;20493;-67
2023/05/16 10:34:28;;;;;;;21.13;18.40;;;16.40;28.00;;;;;;5049726;28;20490;-67
2023/05/16 10:36:56;;;;;;;20.77;18.57;;;16.50;28.40;;;;;;5040257;28;20497;-67
2023/05/16 10:39:23;;;;;;;18.83;16.67;;;16.50;28.50;;;;;;5037651;28;20488;-66
2023/05/16 10:41:50;;;;;;;19.03;16.97;;;16.50;28.20;;;;;;5040431;28;20465;-66
2023/05/16 10:44:17;;;;;;;21.70;17.50;;;16.50;28.40;;;;;;5047321;28;20461;-66
2023/05/16 10:46:44;;;;;;;19.50;17.50;;;16.60;28.60;;;;;;5042374;28;20461;-66
2023/05/16 10:49:22;;;;;;;19.93;17.30;;;16.80;27.90;;;;;;5041418;28;20485;-66
2023/05/16 10:52:14;;;;;;;18.57;16.57;;;17.00;26.90;;;;;;5044170;28;21244;-66
2023/05/16 10:54:42;;;;;;;20.97;18.67;;;17.40;26.00;;;;;;5024957;28;20580;-66
2023/05/16 10:57:14;;;;;;;20.23;17.67;;;17.70;25.20;;;;;;5035123;28;20466;-66
2023/05/16 10:59:45;;;;;;;18.43;16.53;;;18.00;24.90;;;;;;5044461;28;20492;-66
2023/05/16 11:02:27;;;;;;;19.97;17.77;;;18.20;24.40;;;;;;5039303;28;21081;-66
2023/05/16 11:04:58;;;;;;;18.07;16.27;;;18.40;23.60;;;;;;5043770;28;20465;-67
2023/05/16 11:07:25;;;;;;;18.50;16.53;;;18.70;22.10;;;;;;5045250;28;20510;-67
2023/05/16 11:10:07;;;;;;;20.40;17.30;;;19.10;21.70;;;;;;5042634;28;20485;-67
2023/05/16 11:12:38;;;;;;;18.00;15.80;;;19.20;20.00;;;;;;5039571;28;20493;-67
2023/05/16 11:15:22;;;;;;;20.43;15.67;;;19.20;20.40;;;;;;5042560;28;20902;-67
2023/05/16 11:17:49;;;;;;;20.33;14.63;;;18.90;20.00;;;;;;5039194;28;20463;-67
2023/05/16 11:20:33;;;;;;;17.93;16.13;;;18.80;19.60;;;;;;5042434;28;20490;-67
2023/05/16 11:23:20;;;;;;;17.53;14.47;;;18.70;20.10;;;;;;5040309;28;20469;-67
2023/05/16 11:25:49;;;;;;;15.87;14.00;;;18.90;19.90;;;;;;5038070;28;20488;-67
2023/05/16 11:28:17;;;;;;;15.07;12.83;;;19.00;19.60;;;;;;5046049;28;20556;-66
2023/05/16 11:30:45;;;;;;;14.87;13.37;;;18.80;19.50;;;;;;5034912;28;20533;-67
2023/05/16 11:33:12;;;;;;;15.07;13.20;;;18.60;18.20;;;;;;5038369;28;20466;-67
2023/05/16 11:35:41;;;;;;;17.23;13.97;;;18.40;18.60;;;;;;5041581;28;20510;-67
2023/05/16 11:38:12;;;;;;;15.30;13.57;;;18.30;18.30;;;;;;5039786;28;20465;-67
2023/05/16 11:40:43;;;;;;;18.30;13.17;;;18.20;18.60;;;;;;5047312;28;20514;-67
2023/05/16 11:43:10;;;;;;;16.23;13.83;;;18.20;18.90;;;;;;5037748;28;20572;-67
2023/05/16 11:45:37;;;;;;;15.03;12.77;;;18.30;18.70;;;;;;5031603;28;20466;-67
2023/05/16 11:48:05;;;;;;;15.40;12.80;;;18.40;19.00;;;;;;5036371;28;20542;-67
2023/05/16 11:50:34;;;;;;;15.00;13.40;;;18.40;19.20;;;;;;5042691;28;21017;-67
2023/05/16 11:53:02;;;;;;;15.90;12.60;;;18.40;19.10;;;;;;5034979;28;20851;-69
2023/05/16 11:55:31;;;;;;;13.87;12.47;;;18.30;19.00;;;;;;5041055;28;20564;-68
2023/05/16 11:57:58;;;;;;;15.60;12.73;;;18.20;18.30;;;;;;5044278;28;20481;-66
2023/05/16 12:00:26;;;;;;;18.13;13.67;;;18.00;18.60;;;;;;5033200;28;20484;-67
2023/05/16 12:02:54;;;;;;;24.83;13.33;;;17.80;19.30;;;;;;5042276;28;20562;-67
2023/05/16 12:05:24;;;;;;;13.57;11.50;;;17.60;19.20;;;;;;5039071;28;20572;-67
2023/05/16 12:07:53;;;;;;;20.03;13.40;;;17.50;19.10;;;;;;5041308;28;20822;-67
2023/05/16 12:10:21;;;;;;;15.93;13.13;;;17.40;19.60;;;;;;5036729;28;20494;-69
2023/05/16 12:12:51;;;;;;;17.03;12.10;;;17.20;19.40;;;;;;5032721;28;20469;-69
2023/05/16 12:15:19;;;;;;;15.60;11.60;;;17.10;19.80;;;;;;5037932;28;20481;-69
2023/05/16 12:17:46;;;;;;;13.40;10.90;;;17.00;20.00;;;;;;5037304;28;20493;-68
2023/05/16 12:20:15;;;;;;;17.83;13.20;;;16.80;20.30;;;;;;5042984;28;20565;-68
2023/05/16 12:22:42;;;;;;;13.63;11.00;;;16.70;21.00;;;;;;5040573;28;20473;-68
2023/05/16 12:25:25;;;;;;;14.50;11.10;;;16.50;20.90;;;;;;5037394;28;20497;-68
2023/05/16 12:27:53;;;;;;;14.90;11.23;;;16.40;21.60;;;;;;5037325;28;20459;-68
2023/05/16 12:30:23;;;;;;;13.57;11.70;;;16.30;21.80;;;;;;5046629;28;20493;-68
2023/05/16 12:32:55;;;;;;;15.87;12.80;;;16.20;22.60;;;;;;5038962;28;20489;-68
2023/05/16 12:35:22;;;;;;;15.50;11.57;;;16.20;22.50;;;;;;5041904;28;20990;-68
2023/05/16 12:37:50;;;;;;;17.43;12.53;;;16.30;22.40;;;;;;5039334;28;20485;-68